sensor_id;sensor_type;location;lat;lon;timestamp;P1;durP1;ratioP1;P2;durP2;ratioP2
11187;SDS011;5650;52.700;7.306;2022-09-09T00:00:20;13.20;;;6.68;;
11187;SDS011;5650;52.700;7.306;2022-09-09T00:02:50;9.18;;;5.63;;
11187;SDS011;5650;52.700;7.306;2022-09-09T00:05:29;10.00;;;6.15;;
11187;SDS011;5650;52.700;7.306;2022-09-09T00:08:00;9.05;;;5.90;;
11187;SDS011;5650;52.700;7.306;2022-09-09T00:10:34;8.70;;;5.65;;
11187;SDS011;5650;52.700;7.306;2022-09-09T00:13:09;8.88;;;6.13;;
11187;SDS011;5650;52.700;7.306;2022-09-09T00:15:46;11.07;;;5.80;;
11187;SDS011;5650;52.700;7.306;2022-09-09T00:18:24;9.27;;;5.68;;
11187;SDS011;5650;52.700;7.306;2022-09-09T00:20:57;8.82;;;6.30;;
11187;SDS011;5650;52.700;7.306;2022-09-09T00:23:30;6.40;;;5.55;;
11187;SDS011;5650;52.700;7.306;2022-09-09T00:26:09;10.30;;;5.70;;
11187;SDS011;5650;52.700;7.306;2022-09-09T00:28:44;10.15;;;5.70;;
11187;SDS011;5650;52.700;7.306;2022-09-09T00:31:18;6.55;;;5.85;;
11187;SDS011;5650;52.700;7.306;2022-09-09T00:33:50;7.45;;;5.63;;
11187;SDS011;5650;52.700;7.306;2022-09-09T00:36:23;12.77;;;6.03;;
11187;SDS011;5650;52.700;7.306;2022-09-09T00:38:55;8.55;;;6.55;;
11187;SDS011;5650;52.700;7.306;2022-09-09T00:41:34;12.93;;;6.70;;
11187;SDS011;5650;52.700;7.306;2022-09-09T00:44:16;9.98;;;6.43;;
11187;SDS011;5650;52.700;7.306;2022-09-09T00:47:04;10.63;;;6.63;;
11187;SDS011;5650;52.700;7.306;2022-09-09T00:49:48;11.50;;;6.30;;
11187;SDS011;5650;52.700;7.306;2022-09-09T00:52:36;9.90;;;6.20;;
11187;SDS011;5650;52.700;7.306;2022-09-09T00:55:13;9.00;;;6.07;;
11187;SDS011;5650;52.700;7.306;2022-09-09T00:57:47;7.45;;;5.60;;
11187;SDS011;5650;52.700;7.306;2022-09-09T01:00:27;13.20;;;5.60;;
11187;SDS011;5650;52.700;7.306;2022-09-09T01:02:59;12.70;;;5.75;;
11187;SDS011;5650;52.700;7.306;2022-09-09T01:05:39;10.73;;;5.50;;
11187;SDS011;5650;52.700;7.306;2022-09-09T01:08:14;9.93;;;5.40;;
11187;SDS011;5650;52.700;7.306;2022-09-09T01:10:55;10.02;;;4.80;;
11187;SDS011;5650;52.700;7.306;2022-09-09T01:13:27;7.90;;;5.30;;
11187;SDS011;5650;52.700;7.306;2022-09-09T01:15:56;6.72;;;4.70;;
11187;SDS011;5650;52.700;7.306;2022-09-09T01:18:28;11.20;;;5.47;;
11187;SDS011;5650;52.700;7.306;2022-09-09T01:21:02;6.68;;;4.60;;
11187;SDS011;5650;52.700;7.306;2022-09-09T01:23:50;12.75;;;4.38;;
11187;SDS011;5650;52.700;7.306;2022-09-09T01:26:45;11.27;;;4.82;;
11187;SDS011;5650;52.700;7.306;2022-09-09T01:29:13;8.95;;;4.72;;
11187;SDS011;5650;52.700;7.306;2022-09-09T01:31:51;9.32;;;4.53;;
11187;SDS011;5650;52.700;7.306;2022-09-09T01:34:21;9.18;;;4.75;;
11187;SDS011;5650;52.700;7.306;2022-09-09T01:36:57;13.10;;;4.72;;
11187;SDS011;5650;52.700;7.306;2022-09-09T01:39:27;11.18;;;4.88;;
11187;SDS011;5650;52.700;7.306;2022-09-09T01:41:59;9.18;;;4.63;;
11187;SDS011;5650;52.700;7.306;2022-09-09T01:44:27;9.85;;;4.90;;
11187;SDS011;5650;52.700;7.306;2022-09-09T01:46:56;8.05;;;4.25;;
11187;SDS011;5650;52.700;7.306;2022-09-09T01:49:26;8.02;;;4.88;;
11187;SDS011;5650;52.700;7.306;2022-09-09T01:51:54;7.45;;;4.75;;
11187;SDS011;5650;52.700;7.306;2022-09-09T01:54:25;11.85;;;5.38;;
11187;SDS011;5650;52.700;7.306;2022-09-09T01:56:59;9.80;;;5.45;;
11187;SDS011;5650;52.700;7.306;2022-09-09T02:02:40;13.68;;;5.28;;
11187;SDS011;5650;52.700;7.306;2022-09-09T02:05:17;8.68;;;4.60;;
11187;SDS011;5650;52.700;7.306;2022-09-09T02:07:55;19.92;;;5.22;;
11187;SDS011;5650;52.700;7.306;2022-09-09T02:10:31;7.70;;;5.10;;
11187;SDS011;5650;52.700;7.306;2022-09-09T02:13:07;12.45;;;5.25;;
11187;SDS011;5650;52.700;7.306;2022-09-09T02:15:45;7.75;;;4.55;;
11187;SDS011;5650;52.700;7.306;2022-09-09T02:18:17;9.75;;;5.38;;
11187;SDS011;5650;52.700;7.306;2022-09-09T02:20:53;7.40;;;5.60;;
11187;SDS011;5650;52.700;7.306;2022-09-09T02:23:25;14.75;;;5.75;;
11187;SDS011;5650;52.700;7.306;2022-09-09T02:25:54;8.73;;;5.40;;
11187;SDS011;5650;52.700;7.306;2022-09-09T02:28:34;11.13;;;5.75;;
11187;SDS011;5650;52.700;7.306;2022-09-09T02:31:02;11.07;;;5.50;;
11187;SDS011;5650;52.700;7.306;2022-09-09T02:33:30;11.75;;;5.78;;
11187;SDS011;5650;52.700;7.306;2022-09-09T02:36:02;13.20;;;6.65;;
11187;SDS011;5650;52.700;7.306;2022-09-09T02:38:32;10.65;;;6.07;;
11187;SDS011;5650;52.700;7.306;2022-09-09T02:41:05;13.02;;;6.43;;
11187;SDS011;5650;52.700;7.306;2022-09-09T02:43:36;7.40;;;5.35;;
11187;SDS011;5650;52.700;7.306;2022-09-09T02:46:04;9.95;;;5.80;;
11187;SDS011;5650;52.700;7.306;2022-09-09T02:48:44;7.88;;;6.22;;
11187;SDS011;5650;52.700;7.306;2022-09-09T02:51:27;12.90;;;6.03;;
11187;SDS011;5650;52.700;7.306;2022-09-09T02:54:04;15.35;;;6.68;;
11187;SDS011;5650;52.700;7.306;2022-09-09T02:56:39;9.85;;;5.65;;
11187;SDS011;5650;52.700;7.306;2022-09-09T02:59:11;9.77;;;6.28;;
11187;SDS011;5650;52.700;7.306;2022-09-09T03:01:38;10.90;;;5.95;;
11187;SDS011;5650;52.700;7.306;2022-09-09T03:04:11;7.88;;;5.80;;
11187;SDS011;5650;52.700;7.306;2022-09-09T03:06:45;11.52;;;6.72;;
11187;SDS011;5650;52.700;7.306;2022-09-09T03:09:16;10.90;;;6.13;;
11187;SDS011;5650;52.700;7.306;2022-09-09T03:11:43;7.30;;;5.53;;
11187;SDS011;5650;52.700;7.306;2022-09-09T03:14:11;11.00;;;6.13;;
11187;SDS011;5650;52.700;7.306;2022-09-09T03:16:38;8.93;;;5.13;;
11187;SDS011;5650;52.700;7.306;2022-09-09T03:19:07;9.80;;;5.35;;
11187;SDS011;5650;52.700;7.306;2022-09-09T03:21:34;7.68;;;5.25;;
11187;SDS011;5650;52.700;7.306;2022-09-09T03:24:01;5.57;;;4.47;;
11187;SDS011;5650;52.700;7.306;2022-09-09T03:26:42;5.88;;;5.30;;
11187;SDS011;5650;52.700;7.306;2022-09-09T03:29:11;6.25;;;4.45;;
11187;SDS011;5650;52.700;7.306;2022-09-09T03:31:39;6.07;;;4.47;;
11187;SDS011;5650;52.700;7.306;2022-09-09T03:34:07;5.13;;;4.53;;
11187;SDS011;5650;52.700;7.306;2022-09-09T03:36:34;9.65;;;5.20;;
11187;SDS011;5650;52.700;7.306;2022-09-09T03:39:02;6.13;;;5.45;;
11187;SDS011;5650;52.700;7.306;2022-09-09T03:41:30;6.95;;;5.47;;
11187;SDS011;5650;52.700;7.306;2022-09-09T03:43:57;5.13;;;4.57;;
11187;SDS011;5650;52.700;7.306;2022-09-09T03:46:32;6.75;;;5.40;;
11187;SDS011;5650;52.700;7.306;2022-09-09T03:48:59;8.18;;;5.50;;
11187;SDS011;5650;52.700;7.306;2022-09-09T03:51:26;7.72;;;4.95;;
11187;SDS011;5650;52.700;7.306;2022-09-09T03:53:53;5.75;;;4.60;;
11187;SDS011;5650;52.700;7.306;2022-09-09T03:56:21;5.72;;;4.72;;
11187;SDS011;5650;52.700;7.306;2022-09-09T03:58:51;10.52;;;5.35;;
11187;SDS011;5650;52.700;7.306;2022-09-09T04:01:24;7.20;;;4.68;;
11187;SDS011;5650;52.700;7.306;2022-09-09T04:03:52;7.60;;;5.05;;
11187;SDS011;5650;52.700;7.306;2022-09-09T04:06:23;7.45;;;4.72;;
11187;SDS011;5650;52.700;7.306;2022-09-09T04:08:50;4.93;;;4.30;;
11187;SDS011;5650;52.700;7.306;2022-09-09T04:11:18;9.00;;;4.82;;
11187;SDS011;5650;52.700;7.306;2022-09-09T04:13:45;5.78;;;4.90;;
11187;SDS011;5650;52.700;7.306;2022-09-09T04:16:12;8.05;;;4.97;;
11187;SDS011;5650;52.700;7.306;2022-09-09T04:18:42;6.68;;;4.78;;
11187;SDS011;5650;52.700;7.306;2022-09-09T04:21:14;8.55;;;4.68;;
11187;SDS011;5650;52.700;7.306;2022-09-09T04:23:41;8.05;;;4.68;;
11187;SDS011;5650;52.700;7.306;2022-09-09T04:26:11;7.47;;;4.35;;
11187;SDS011;5650;52.700;7.306;2022-09-09T04:28:38;6.95;;;4.57;;
11187;SDS011;5650;52.700;7.306;2022-09-09T04:31:14;6.10;;;4.22;;
11187;SDS011;5650;52.700;7.306;2022-09-09T04:33:42;9.10;;;4.50;;
11187;SDS011;5650;52.700;7.306;2022-09-09T04:36:14;6.95;;;4.22;;
11187;SDS011;5650;52.700;7.306;2022-09-09T04:38:44;6.07;;;3.97;;
11187;SDS011;5650;52.700;7.306;2022-09-09T04:41:17;7.40;;;4.10;;
11187;SDS011;5650;52.700;7.306;2022-09-09T04:43:47;5.00;;;3.88;;
11187;SDS011;5650;52.700;7.306;2022-09-09T04:46:15;6.95;;;4.88;;
11187;SDS011;5650;52.700;7.306;2022-09-09T04:48:46;7.25;;;4.40;;
11187;SDS011;5650;52.700;7.306;2022-09-09T04:51:15;6.03;;;4.63;;
11187;SDS011;5650;52.700;7.306;2022-09-09T04:53:42;7.20;;;4.88;;
11187;SDS011;5650;52.700;7.306;2022-09-09T04:56:11;6.13;;;4.68;;
11187;SDS011;5650;52.700;7.306;2022-09-09T04:58:42;7.32;;;4.68;;
11187;SDS011;5650;52.700;7.306;2022-09-09T05:01:11;5.40;;;4.47;;
11187;SDS011;5650;52.700;7.306;2022-09-09T05:03:42;11.25;;;4.88;;
11187;SDS011;5650;52.700;7.306;2022-09-09T05:06:22;5.85;;;4.75;;
11187;SDS011;5650;52.700;7.306;2022-09-09T05:08:50;7.97;;;5.00;;
11187;SDS011;5650;52.700;7.306;2022-09-09T05:11:20;11.55;;;5.35;;
11187;SDS011;5650;52.700;7.306;2022-09-09T05:13:49;6.65;;;5.40;;
11187;SDS011;5650;52.700;7.306;2022-09-09T05:16:24;8.25;;;5.38;;
11187;SDS011;5650;52.700;7.306;2022-09-09T05:18:51;8.23;;;5.05;;
11187;SDS011;5650;52.700;7.306;2022-09-09T05:21:25;7.68;;;5.63;;
11187;SDS011;5650;52.700;7.306;2022-09-09T05:23:53;9.45;;;5.22;;
11187;SDS011;5650;52.700;7.306;2022-09-09T05:26:20;9.68;;;5.03;;
11187;SDS011;5650;52.700;7.306;2022-09-09T05:28:49;7.85;;;5.45;;
11187;SDS011;5650;52.700;7.306;2022-09-09T05:31:16;8.32;;;4.90;;
11187;SDS011;5650;52.700;7.306;2022-09-09T05:33:45;6.30;;;5.38;;
11187;SDS011;5650;52.700;7.306;2022-09-09T05:36:15;8.70;;;4.95;;
11187;SDS011;5650;52.700;7.306;2022-09-09T05:38:50;6.25;;;4.82;;
11187;SDS011;5650;52.700;7.306;2022-09-09T05:41:19;7.97;;;5.32;;
11187;SDS011;5650;52.700;7.306;2022-09-09T05:43:48;6.07;;;5.47;;
11187;SDS011;5650;52.700;7.306;2022-09-09T05:46:19;6.70;;;5.97;;
11187;SDS011;5650;52.700;7.306;2022-09-09T05:48:47;8.73;;;6.28;;
11187;SDS011;5650;52.700;7.306;2022-09-09T05:51:19;6.75;;;5.68;;
11187;SDS011;5650;52.700;7.306;2022-09-09T05:53:50;7.57;;;5.63;;
11187;SDS011;5650;52.700;7.306;2022-09-09T05:56:18;4.43;;;3.90;;
11187;SDS011;5650;52.700;7.306;2022-09-09T05:58:46;6.82;;;4.22;;
11187;SDS011;5650;52.700;7.306;2022-09-09T06:01:26;8.43;;;3.80;;
11187;SDS011;5650;52.700;7.306;2022-09-09T06:04:04;3.90;;;3.42;;
11187;SDS011;5650;52.700;7.306;2022-09-09T06:06:37;5.70;;;3.53;;
11187;SDS011;5650;52.700;7.306;2022-09-09T06:09:07;7.00;;;3.65;;
11187;SDS011;5650;52.700;7.306;2022-09-09T06:11:41;8.95;;;4.07;;
11187;SDS011;5650;52.700;7.306;2022-09-09T06:14:11;4.93;;;3.50;;
11187;SDS011;5650;52.700;7.306;2022-09-09T06:16:41;5.50;;;3.60;;
11187;SDS011;5650;52.700;7.306;2022-09-09T06:19:09;7.45;;;3.70;;
11187;SDS011;5650;52.700;7.306;2022-09-09T06:21:37;5.95;;;3.10;;
11187;SDS011;5650;52.700;7.306;2022-09-09T06:24:06;5.00;;;3.58;;
11187;SDS011;5650;52.700;7.306;2022-09-09T06:26:37;5.97;;;3.60;;
11187;SDS011;5650;52.700;7.306;2022-09-09T06:29:05;7.25;;;3.78;;
11187;SDS011;5650;52.700;7.306;2022-09-09T06:31:33;5.25;;;3.63;;
11187;SDS011;5650;52.700;7.306;2022-09-09T06:34:03;6.82;;;3.70;;
11187;SDS011;5650;52.700;7.306;2022-09-09T06:36:38;5.57;;;3.53;;
11187;SDS011;5650;52.700;7.306;2022-09-09T06:39:06;6.30;;;3.83;;
11187;SDS011;5650;52.700;7.306;2022-09-09T06:41:36;7.32;;;3.58;;
11187;SDS011;5650;52.700;7.306;2022-09-09T06:44:06;4.80;;;3.40;;
11187;SDS011;5650;52.700;7.306;2022-09-09T06:46:33;5.22;;;3.00;;
11187;SDS011;5650;52.700;7.306;2022-09-09T06:49:12;7.45;;;3.30;;
11187;SDS011;5650;52.700;7.306;2022-09-09T06:51:42;7.97;;;3.40;;
11187;SDS011;5650;52.700;7.306;2022-09-09T06:54:13;6.80;;;3.53;;
11187;SDS011;5650;52.700;7.306;2022-09-09T06:56:43;5.45;;;3.58;;
11187;SDS011;5650;52.700;7.306;2022-09-09T06:59:11;4.75;;;3.67;;
11187;SDS011;5650;52.700;7.306;2022-09-09T07:01:39;7.32;;;3.53;;
11187;SDS011;5650;52.700;7.306;2022-09-09T07:04:10;4.32;;;3.10;;
11187;SDS011;5650;52.700;7.306;2022-09-09T07:06:41;7.03;;;3.00;;
11187;SDS011;5650;52.700;7.306;2022-09-09T07:09:10;7.28;;;2.90;;
11187;SDS011;5650;52.700;7.306;2022-09-09T07:11:41;8.13;;;3.30;;
11187;SDS011;5650;52.700;7.306;2022-09-09T07:14:09;5.00;;;2.90;;
11187;SDS011;5650;52.700;7.306;2022-09-09T07:16:39;6.95;;;2.92;;
11187;SDS011;5650;52.700;7.306;2022-09-09T07:19:07;5.22;;;2.78;;
11187;SDS011;5650;52.700;7.306;2022-09-09T07:21:34;5.25;;;3.00;;
11187;SDS011;5650;52.700;7.306;2022-09-09T07:24:08;5.95;;;3.10;;
11187;SDS011;5650;52.700;7.306;2022-09-09T07:26:36;6.18;;;3.22;;
11187;SDS011;5650;52.700;7.306;2022-09-09T07:29:06;8.10;;;3.20;;
11187;SDS011;5650;52.700;7.306;2022-09-09T07:31:36;9.32;;;3.92;;
11187;SDS011;5650;52.700;7.306;2022-09-09T07:34:08;5.55;;;2.80;;
11187;SDS011;5650;52.700;7.306;2022-09-09T07:36:36;5.15;;;2.92;;
11187;SDS011;5650;52.700;7.306;2022-09-09T07:39:05;6.80;;;3.17;;
11187;SDS011;5650;52.700;7.306;2022-09-09T07:41:38;6.63;;;2.88;;
11187;SDS011;5650;52.700;7.306;2022-09-09T07:44:09;6.20;;;2.83;;
11187;SDS011;5650;52.700;7.306;2022-09-09T07:46:38;5.47;;;2.78;;
11187;SDS011;5650;52.700;7.306;2022-09-09T07:49:07;4.93;;;2.67;;
11187;SDS011;5650;52.700;7.306;2022-09-09T07:51:42;12.80;;;2.95;;
11187;SDS011;5650;52.700;7.306;2022-09-09T07:54:14;11.32;;;3.22;;
11187;SDS011;5650;52.700;7.306;2022-09-09T07:56:45;9.73;;;3.00;;
11187;SDS011;5650;52.700;7.306;2022-09-09T07:59:14;9.13;;;2.67;;
11187;SDS011;5650;52.700;7.306;2022-09-09T08:01:42;6.38;;;2.80;;
11187;SDS011;5650;52.700;7.306;2022-09-09T08:04:11;4.82;;;2.53;;
11187;SDS011;5650;52.700;7.306;2022-09-09T08:06:42;6.70;;;2.72;;
11187;SDS011;5650;52.700;7.306;2022-09-09T08:09:11;7.20;;;3.10;;
11187;SDS011;5650;52.700;7.306;2022-09-09T08:11:39;7.82;;;2.78;;
11187;SDS011;5650;52.700;7.306;2022-09-09T08:14:07;6.78;;;2.92;;
11187;SDS011;5650;52.700;7.306;2022-09-09T08:16:38;6.53;;;2.97;;
11187;SDS011;5650;52.700;7.306;2022-09-09T08:19:06;6.70;;;2.33;;
11187;SDS011;5650;52.700;7.306;2022-09-09T08:21:37;8.43;;;2.80;;
11187;SDS011;5650;52.700;7.306;2022-09-09T08:24:09;5.50;;;2.25;;
11187;SDS011;5650;52.700;7.306;2022-09-09T08:26:43;7.80;;;2.65;;
11187;SDS011;5650;52.700;7.306;2022-09-09T08:29:12;8.77;;;2.53;;
11187;SDS011;5650;52.700;7.306;2022-09-09T08:31:42;6.38;;;2.67;;
11187;SDS011;5650;52.700;7.306;2022-09-09T08:34:10;7.15;;;2.50;;
11187;SDS011;5650;52.700;7.306;2022-09-09T08:36:41;7.80;;;2.70;;
11187;SDS011;5650;52.700;7.306;2022-09-09T08:39:10;6.90;;;2.40;;
11187;SDS011;5650;52.700;7.306;2022-09-09T08:41:59;8.75;;;2.75;;
11187;SDS011;5650;52.700;7.306;2022-09-09T08:44:43;8.98;;;2.30;;
11187;SDS011;5650;52.700;7.306;2022-09-09T08:47:37;7.85;;;3.03;;
11187;SDS011;5650;52.700;7.306;2022-09-09T08:50:15;7.68;;;2.65;;
11187;SDS011;5650;52.700;7.306;2022-09-09T08:52:49;5.32;;;2.47;;
11187;SDS011;5650;52.700;7.306;2022-09-09T08:55:22;7.07;;;2.25;;
11187;SDS011;5650;52.700;7.306;2022-09-09T08:57:54;7.32;;;2.33;;
11187;SDS011;5650;52.700;7.306;2022-09-09T09:00:27;6.32;;;1.88;;
11187;SDS011;5650;52.700;7.306;2022-09-09T09:03:09;6.13;;;2.40;;
11187;SDS011;5650;52.700;7.306;2022-09-09T09:05:50;5.88;;;2.17;;
11187;SDS011;5650;52.700;7.306;2022-09-09T09:08:25;8.20;;;2.63;;
11187;SDS011;5650;52.700;7.306;2022-09-09T09:11:03;5.32;;;2.30;;
11187;SDS011;5650;52.700;7.306;2022-09-09T09:13:35;6.25;;;2.38;;
11187;SDS011;5650;52.700;7.306;2022-09-09T09:16:13;9.00;;;2.63;;
11187;SDS011;5650;52.700;7.306;2022-09-09T09:18:49;8.02;;;2.00;;
11187;SDS011;5650;52.700;7.306;2022-09-09T09:21:19;8.75;;;2.25;;
11187;SDS011;5650;52.700;7.306;2022-09-09T09:23:53;11.10;;;2.67;;
11187;SDS011;5650;52.700;7.306;2022-09-09T09:26:23;10.98;;;2.38;;
11187;SDS011;5650;52.700;7.306;2022-09-09T09:28:55;10.13;;;2.58;;
11187;SDS011;5650;52.700;7.306;2022-09-09T09:31:27;9.95;;;2.75;;
11187;SDS011;5650;52.700;7.306;2022-09-09T09:34:07;11.60;;;2.90;;
11187;SDS011;5650;52.700;7.306;2022-09-09T09:36:38;8.13;;;2.35;;
11187;SDS011;5650;52.700;7.306;2022-09-09T09:39:07;8.18;;;2.42;;
11187;SDS011;5650;52.700;7.306;2022-09-09T09:41:41;8.73;;;2.17;;
11187;SDS011;5650;52.700;7.306;2022-09-09T09:44:21;11.25;;;2.67;;
11187;SDS011;5650;52.700;7.306;2022-09-09T09:46:50;7.85;;;2.28;;
11187;SDS011;5650;52.700;7.306;2022-09-09T09:49:19;9.85;;;2.50;;
11187;SDS011;5650;52.700;7.306;2022-09-09T09:51:46;6.68;;;2.20;;
11187;SDS011;5650;52.700;7.306;2022-09-09T09:54:15;6.30;;;2.00;;
11187;SDS011;5650;52.700;7.306;2022-09-09T09:56:49;10.93;;;2.45;;
11187;SDS011;5650;52.700;7.306;2022-09-09T09:59:19;10.18;;;2.58;;
11187;SDS011;5650;52.700;7.306;2022-09-09T10:01:48;7.20;;;2.30;;
11187;SDS011;5650;52.700;7.306;2022-09-09T10:04:21;8.57;;;2.25;;
11187;SDS011;5650;52.700;7.306;2022-09-09T10:06:49;8.35;;;2.20;;
11187;SDS011;5650;52.700;7.306;2022-09-09T10:09:21;10.15;;;2.53;;
11187;SDS011;5650;52.700;7.306;2022-09-09T10:11:52;7.88;;;2.17;;
11187;SDS011;5650;52.700;7.306;2022-09-09T10:14:25;11.80;;;2.47;;
11187;SDS011;5650;52.700;7.306;2022-09-09T10:17:01;7.53;;;2.30;;
11187;SDS011;5650;52.700;7.306;2022-09-09T10:19:37;14.68;;;2.45;;
11187;SDS011;5650;52.700;7.306;2022-09-09T10:22:15;11.10;;;2.42;;
11187;SDS011;5650;52.700;7.306;2022-09-09T10:25:14;11.82;;;2.28;;
11187;SDS011;5650;52.700;7.306;2022-09-09T10:31:11;10.07;;;2.55;;
11187;SDS011;5650;52.700;7.306;2022-09-09T10:33:51;8.93;;;2.20;;
11187;SDS011;5650;52.700;7.306;2022-09-09T10:36:35;8.55;;;2.17;;
11187;SDS011;5650;52.700;7.306;2022-09-09T10:39:15;10.38;;;2.70;;
11187;SDS011;5650;52.700;7.306;2022-09-09T10:41:59;7.50;;;2.40;;
11187;SDS011;5650;52.700;7.306;2022-09-09T10:44:37;9.32;;;2.22;;
11187;SDS011;5650;52.700;7.306;2022-09-09T10:47:20;9.98;;;2.28;;
11187;SDS011;5650;52.700;7.306;2022-09-09T10:53:21;15.07;;;2.30;;
11187;SDS011;5650;52.700;7.306;2022-09-09T10:56:15;6.18;;;1.90;;
11187;SDS011;5650;52.700;7.306;2022-09-09T10:58:46;7.90;;;1.92;;
11187;SDS011;5650;52.700;7.306;2022-09-09T11:01:16;7.93;;;2.45;;
11187;SDS011;5650;52.700;7.306;2022-09-09T11:03:51;10.05;;;2.20;;
11187;SDS011;5650;52.700;7.306;2022-09-09T11:06:21;12.73;;;2.17;;
11187;SDS011;5650;52.700;7.306;2022-09-09T11:08:57;6.15;;;2.13;;
11187;SDS011;5650;52.700;7.306;2022-09-09T11:11:28;9.43;;;2.55;;
11187;SDS011;5650;52.700;7.306;2022-09-09T11:14:01;7.43;;;1.73;;
11187;SDS011;5650;52.700;7.306;2022-09-09T11:16:36;8.52;;;2.00;;
11187;SDS011;5650;52.700;7.306;2022-09-09T11:19:11;7.63;;;1.65;;
11187;SDS011;5650;52.700;7.306;2022-09-09T11:21:44;9.13;;;2.10;;
11187;SDS011;5650;52.700;7.306;2022-09-09T11:24:15;8.82;;;2.35;;
11187;SDS011;5650;52.700;7.306;2022-09-09T11:26:49;7.80;;;1.88;;
11187;SDS011;5650;52.700;7.306;2022-09-09T11:29:26;6.32;;;1.83;;
11187;SDS011;5650;52.700;7.306;2022-09-09T11:32:34;7.20;;;1.70;;
11187;SDS011;5650;52.700;7.306;2022-09-09T11:35:29;5.53;;;1.70;;
11187;SDS011;5650;52.700;7.306;2022-09-09T11:38:13;6.13;;;1.83;;
11187;SDS011;5650;52.700;7.306;2022-09-09T11:40:56;4.55;;;1.63;;
11187;SDS011;5650;52.700;7.306;2022-09-09T11:43:27;6.43;;;1.83;;
11187;SDS011;5650;52.700;7.306;2022-09-09T11:45:58;7.35;;;1.77;;
11187;SDS011;5650;52.700;7.306;2022-09-09T11:48:35;6.32;;;1.58;;
11187;SDS011;5650;52.700;7.306;2022-09-09T11:51:07;4.72;;;1.60;;
11187;SDS011;5650;52.700;7.306;2022-09-09T11:53:47;4.57;;;1.35;;
11187;SDS011;5650;52.700;7.306;2022-09-09T11:59:03;6.32;;;1.38;;
11187;SDS011;5650;52.700;7.306;2022-09-09T12:01:41;7.93;;;1.90;;
11187;SDS011;5650;52.700;7.306;2022-09-09T12:04:17;4.43;;;1.60;;
11187;SDS011;5650;52.700;7.306;2022-09-09T12:06:59;11.07;;;1.85;;
11187;SDS011;5650;52.700;7.306;2022-09-09T12:09:40;6.40;;;1.63;;
11187;SDS011;5650;52.700;7.306;2022-09-09T12:12:25;11.15;;;1.70;;
11187;SDS011;5650;52.700;7.306;2022-09-09T12:14:58;3.90;;;1.42;;
11187;SDS011;5650;52.700;7.306;2022-09-09T12:17:28;7.68;;;1.60;;
11187;SDS011;5650;52.700;7.306;2022-09-09T12:20:04;5.60;;;1.70;;
11187;SDS011;5650;52.700;7.306;2022-09-09T12:22:44;6.57;;;1.50;;
11187;SDS011;5650;52.700;7.306;2022-09-09T12:25:39;3.70;;;1.35;;
11187;SDS011;5650;52.700;7.306;2022-09-09T12:28:18;5.13;;;1.23;;
11187;SDS011;5650;52.700;7.306;2022-09-09T12:30:50;4.97;;;1.55;;
11187;SDS011;5650;52.700;7.306;2022-09-09T12:33:22;6.85;;;1.73;;
11187;SDS011;5650;52.700;7.306;2022-09-09T12:35:51;2.97;;;1.20;;
11187;SDS011;5650;52.700;7.306;2022-09-09T12:38:23;12.10;;;1.60;;
11187;SDS011;5650;52.700;7.306;2022-09-09T12:40:56;4.47;;;1.15;;
11187;SDS011;5650;52.700;7.306;2022-09-09T12:43:26;4.55;;;1.52;;
11187;SDS011;5650;52.700;7.306;2022-09-09T12:45:54;4.20;;;1.13;;
11187;SDS011;5650;52.700;7.306;2022-09-09T12:48:28;4.28;;;1.45;;
11187;SDS011;5650;52.700;7.306;2022-09-09T12:50:58;4.10;;;1.13;;
11187;SDS011;5650;52.700;7.306;2022-09-09T12:53:26;2.97;;;1.30;;
11187;SDS011;5650;52.700;7.306;2022-09-09T12:55:58;6.75;;;1.58;;
11187;SDS011;5650;52.700;7.306;2022-09-09T12:58:30;4.25;;;1.40;;
11187;SDS011;5650;52.700;7.306;2022-09-09T13:01:03;3.33;;;1.15;;
11187;SDS011;5650;52.700;7.306;2022-09-09T13:03:32;5.00;;;1.30;;
11187;SDS011;5650;52.700;7.306;2022-09-09T13:06:10;3.92;;;1.30;;
11187;SDS011;5650;52.700;7.306;2022-09-09T13:08:39;4.03;;;1.27;;
11187;SDS011;5650;52.700;7.306;2022-09-09T13:11:07;6.85;;;1.23;;
11187;SDS011;5650;52.700;7.306;2022-09-09T13:13:42;6.75;;;1.50;;
11187;SDS011;5650;52.700;7.306;2022-09-09T13:16:20;5.68;;;1.35;;
11187;SDS011;5650;52.700;7.306;2022-09-09T13:18:49;4.57;;;1.20;;
11187;SDS011;5650;52.700;7.306;2022-09-09T13:21:17;6.53;;;1.77;;
11187;SDS011;5650;52.700;7.306;2022-09-09T13:23:50;3.25;;;1.17;;
11187;SDS011;5650;52.700;7.306;2022-09-09T13:26:22;6.47;;;1.30;;
11187;SDS011;5650;52.700;7.306;2022-09-09T13:28:52;7.72;;;1.77;;
11187;SDS011;5650;52.700;7.306;2022-09-09T13:31:21;6.90;;;1.80;;
11187;SDS011;5650;52.700;7.306;2022-09-09T13:33:52;4.53;;;1.55;;
11187;SDS011;5650;52.700;7.306;2022-09-09T13:39:50;6.22;;;1.20;;
11187;SDS011;5650;52.700;7.306;2022-09-09T13:42:24;6.32;;;1.65;;
11187;SDS011;5650;52.700;7.306;2022-09-09T13:44:55;7.50;;;1.45;;
11187;SDS011;5650;52.700;7.306;2022-09-09T13:47:29;4.47;;;1.40;;
11187;SDS011;5650;52.700;7.306;2022-09-09T13:50:15;4.70;;;1.40;;
11187;SDS011;5650;52.700;7.306;2022-09-09T13:52:46;7.43;;;1.60;;
11187;SDS011;5650;52.700;7.306;2022-09-09T13:55:20;5.47;;;1.30;;
11187;SDS011;5650;52.700;7.306;2022-09-09T13:57:51;5.18;;;1.15;;
11187;SDS011;5650;52.700;7.306;2022-09-09T14:00:21;4.50;;;1.10;;
11187;SDS011;5650;52.700;7.306;2022-09-09T14:02:49;4.32;;;1.20;;
11187;SDS011;5650;52.700;7.306;2022-09-09T14:05:17;5.40;;;1.17;;
11187;SDS011;5650;52.700;7.306;2022-09-09T14:07:45;5.60;;;1.20;;
11187;SDS011;5650;52.700;7.306;2022-09-09T14:10:13;10.15;;;1.58;;
11187;SDS011;5650;52.700;7.306;2022-09-09T14:12:40;6.18;;;1.30;;
11187;SDS011;5650;52.700;7.306;2022-09-09T14:15:09;3.35;;;1.30;;
11187;SDS011;5650;52.700;7.306;2022-09-09T14:17:41;3.35;;;1.20;;
11187;SDS011;5650;52.700;7.306;2022-09-09T14:20:11;5.00;;;1.30;;
11187;SDS011;5650;52.700;7.306;2022-09-09T14:22:40;3.55;;;1.20;;
11187;SDS011;5650;52.700;7.306;2022-09-09T14:25:09;5.00;;;1.20;;
11187;SDS011;5650;52.700;7.306;2022-09-09T14:27:39;6.32;;;1.52;;
11187;SDS011;5650;52.700;7.306;2022-09-09T14:30:09;5.50;;;1.58;;
11187;SDS011;5650;52.700;7.306;2022-09-09T14:32:37;3.78;;;1.08;;
11187;SDS011;5650;52.700;7.306;2022-09-09T14:35:11;6.43;;;1.30;;
11187;SDS011;5650;52.700;7.306;2022-09-09T14:37:38;2.40;;;0.80;;
11187;SDS011;5650;52.700;7.306;2022-09-09T14:40:06;8.25;;;0.88;;
11187;SDS011;5650;52.700;7.306;2022-09-09T14:42:33;2.45;;;0.60;;
11187;SDS011;5650;52.700;7.306;2022-09-09T14:45:11;3.45;;;0.80;;
11187;SDS011;5650;52.700;7.306;2022-09-09T14:47:38;5.57;;;0.93;;
11187;SDS011;5650;52.700;7.306;2022-09-09T14:50:17;3.63;;;0.40;;
11187;SDS011;5650;52.700;7.306;2022-09-09T14:52:48;2.90;;;0.60;;
11187;SDS011;5650;52.700;7.306;2022-09-09T14:55:15;3.33;;;0.57;;
11187;SDS011;5650;52.700;7.306;2022-09-09T14:57:43;12.60;;;0.88;;
11187;SDS011;5650;52.700;7.306;2022-09-09T15:00:17;2.70;;;0.50;;
11187;SDS011;5650;52.700;7.306;2022-09-09T15:02:45;2.83;;;0.50;;
11187;SDS011;5650;52.700;7.306;2022-09-09T15:05:22;6.78;;;1.00;;
11187;SDS011;5650;52.700;7.306;2022-09-09T15:07:50;2.72;;;0.52;;
11187;SDS011;5650;52.700;7.306;2022-09-09T15:10:17;2.55;;;0.68;;
11187;SDS011;5650;52.700;7.306;2022-09-09T15:12:44;1.83;;;0.80;;
11187;SDS011;5650;52.700;7.306;2022-09-09T15:15:13;2.55;;;0.85;;
11187;SDS011;5650;52.700;7.306;2022-09-09T15:17:41;2.28;;;0.60;;
11187;SDS011;5650;52.700;7.306;2022-09-09T15:20:10;2.88;;;0.82;;
11187;SDS011;5650;52.700;7.306;2022-09-09T15:22:39;1.95;;;0.65;;
11187;SDS011;5650;52.700;7.306;2022-09-09T15:25:08;3.28;;;1.30;;
11187;SDS011;5650;52.700;7.306;2022-09-09T15:27:35;4.07;;;1.20;;
11187;SDS011;5650;52.700;7.306;2022-09-09T15:30:10;5.15;;;0.80;;
11187;SDS011;5650;52.700;7.306;2022-09-09T15:32:38;2.97;;;1.20;;
11187;SDS011;5650;52.700;7.306;2022-09-09T15:35:08;5.05;;;1.10;;
11187;SDS011;5650;52.700;7.306;2022-09-09T15:37:39;3.50;;;1.17;;
11187;SDS011;5650;52.700;7.306;2022-09-09T15:40:07;5.57;;;0.98;;
11187;SDS011;5650;52.700;7.306;2022-09-09T15:42:40;2.50;;;0.93;;
11187;SDS011;5650;52.700;7.306;2022-09-09T15:45:08;4.97;;;1.02;;
11187;SDS011;5650;52.700;7.306;2022-09-09T15:47:45;6.40;;;1.30;;